• Join FlightAware (Why Join?)
  • Login
  • US Flag 
11:53PM EDT


 

Airport Tracker/Info


-or-


 

Live Flight TrackerFlight Track Log ✈ BMJ70 ✈ 18-Mar-2014 ✈ KGPZ - KINL

Flight Track Log - Related Links

Times and Time Zones

All times are in EDT time to prevent confusion due to time zone crossing. See the BMJ70 flight status page for this flight to view local times or setup timezone preferences in your user account.

Time Position Orientation Groundspeed Altitude Reporting Facility
EDT Latitude Longitude Course Direction KTS MPH feet Rate Location/Type
09:32AM 47.2647 -93.4992 11° North 113 130 3,700  Level Minneapolis Center
09:33AM 47.4158 -93.4644 North  Level FlightAware Approximate
09:33AM 47.2961 -93.4867 15° North 113 130 4,900  Level Minneapolis Center
09:34AM 47.4594 -93.4615 North  Level FlightAware Approximate
09:34AM 47.3292 -93.4958 349° North 115 132 6,000  Level Minneapolis Center
09:35AM 47.5029 -93.4585 North  Level FlightAware Approximate
09:35AM 47.3692 -93.5022 354° North 130 150 6,100  Level Minneapolis Center
09:36AM 47.5465 -93.4555 North  Level FlightAware Approximate
09:36AM 47.4164 -93.5083 355° North 153 176 6,100  Level Minneapolis Center
09:37AM 47.4639 -93.5175 353° North 164 189 6,100 -60 Level Minneapolis Center
09:38AM 47.5114 -93.5233 355° North 167 192 6,000 -60 Descending Minneapolis Center
09:39AM 47.5592 -93.5211 North 168 193 6,000  Level Minneapolis Center
09:40AM 47.6064 -93.5211 360° North 168 193 6,000  Level Minneapolis Center
09:41AM 47.6536 -93.5208 360° North 168 193 6,000  Level Minneapolis Center
09:42AM 47.7006 -93.5214 360° North 168 193 6,000  Level Minneapolis Center
09:43AM 47.7561 -93.5197 North 168 193 6,000  Level Minneapolis Center
09:44AM 47.8036 -93.5208 359° North 168 193 6,000  Level Minneapolis Center
09:45AM 47.8508 -93.5208 360° North 168 193 6,000  Level Minneapolis Center
09:46AM 47.8975 -93.5169 North 168 193 6,100  Climbing Minneapolis Center
09:47AM 47.9447 -93.5108 North 168 193 6,100  Level Minneapolis Center
09:48AM 47.9914 -93.5050 North 168 193 6,100  Level Minneapolis Center
09:49AM 48.0375 -93.4969 North 168 193 6,100  Level Minneapolis Center
09:50AM 48.0842 -93.4839 11° North 168 193 6,100 -180 Level Minneapolis Center
09:51AM 48.1308 -93.4681 13° North 168 193 5,800 -480 Descending Minneapolis Center
09:52AM 48.1908 -93.4536 North 175 201 5,200 -600 Descending Minneapolis Center
09:53AM 48.2381 -93.4486 North 176 203 4,600 -600 Descending Minneapolis Center
09:54AM 48.2833 -93.4353 11° North 172 198 4,000 -300 Descending Minneapolis Center
09:55AM 48.3275 -93.4200 13° North 171 197 4,000 -120 Level Minneapolis Center
09:56AM 48.3681 -93.4056 13° North 161 185 3,800 -300 Descending Minneapolis Center
09:57AM 48.4122 -93.3964 North 158 182 3,500 -300 Descending Minneapolis Center
09:59AM 48.4653 -93.3978 359° North  Level FlightAware Approximate